Flight Track Log - Related Links

Times and Time Zones

All times are in EDT time to prevent confusion due to time zone crossing. See the N4091F flight status page for this flight to view local times or setup timezone preferences in your user account.

Time Position Orientation Groundspeed Altitude Reporting Facility
EDT Latitude Longitude Course Direction KTS MPH feet Rate Location/Type
Wed 05:27:39 PM 43.8836 -92.3922 79° East 145 167 3,200  Level Minneapolis Center
Wed 05:28:41 PM 43.8964 -92.3383 72° East 146 168 3,900 726 Climbing Minneapolis Center
Wed 05:29:43 PM 43.9053 -92.2775 79° East 147 169 4,700 726 Climbing Minneapolis Center
Wed 05:30:45 PM 43.9144 -92.2161 78° East 149 171 5,400 726 Climbing Minneapolis Center
Wed 05:31:00 PM 43.9449 -92.1921 74° East  Level FlightAware Approximate
Wed 05:31:47 PM 43.9219 -92.1589 80° East 151 174 6,200  Level Minneapolis Center
Wed 05:32:00 PM 43.9551 -92.1308 79° East  Level FlightAware Approximate
Wed 05:32:49 PM 43.9253 -92.0942 86° East 153 176 6,900  Level Minneapolis Center
Wed 05:33:00 PM 43.9640 -92.0690 79° East  Level FlightAware Approximate
Wed 05:33:51 PM 43.9303 -92.0300 84° East 168 193 7,100  Level Minneapolis Center
Wed 05:34:54 PM 43.9406 -91.9633 78° East 166 191 7,900 672 Climbing Minneapolis Center
Wed 05:35:56 PM 43.9528 -91.9042 74° East 163 188 8,500 484 Climbing Minneapolis Center
Wed 05:36:58 PM 43.9694 -91.8394 70° East 164 189 8,900 194 Climbing Minneapolis Center
Wed 05:38:00 PM 43.9850 -91.7717 72° East 182 209 8,900  Level Minneapolis Center
Wed 05:39:02 PM 44.0031 -91.7028 70° East 180 207 8,900  Level Minneapolis Center
Wed 05:40:04 PM 44.0211 -91.6336 70° East 180 207 8,900  Level Minneapolis Center
Wed 05:41:06 PM 44.0386 -91.5653 70° East 180 207 8,900  Level Minneapolis Center
Wed 05:42:08 PM 44.0561 -91.4975 70° East 179 206 8,900  Level Minneapolis Center
Wed 05:43:11 PM 44.0725 -91.4328 71° East 182 209 8,900  Level Minneapolis Center
Wed 05:44:13 PM 44.0908 -91.3664 69° East 177 204 8,900  Level Minneapolis Center
Wed 05:45:15 PM 44.1081 -91.2986 70° East 177 204 8,900  Level Minneapolis Center
Wed 05:46:17 PM 44.1256 -91.2292 71° East 183 211 8,900  Level Minneapolis Center
Wed 05:47:19 PM 44.1433 -91.1600 70° East 183 211 8,900  Level Minneapolis Center
Wed 05:48:21 PM 44.1619 -91.0928 69° East 182 209 8,900 97 Level Minneapolis Center
Wed 05:49:23 PM 44.1806 -91.0283 68° East 175 201 9,100 48 Climbing Minneapolis Center
Wed 05:50:25 PM 44.1950 -90.9650 72° East 175 201 9,000 -48 Descending Minneapolis Center
Wed 05:51:27 PM 44.2067 -90.8964 77° East 175 201 9,000  Level Minneapolis Center
Wed 05:52:30 PM 44.2178 -90.8261 78° East 176 203 9,000  Level Minneapolis Center
Wed 05:53:32 PM 44.2322 -90.7564 74° East 176 203 9,000 48 Level Minneapolis Center
Wed 05:54:34 PM 44.2431 -90.6842 78° East 181 208 9,100  Climbing Minneapolis Center
Wed 05:55:36 PM 44.2511 -90.6072 82° East 187 215 9,000 -48 Descending Minneapolis Center
Wed 05:56:38 PM 44.2594 -90.5303 81° East 190 219 9,000  Level Minneapolis Center
Wed 05:57:40 PM 44.2664 -90.4603 82° East 190 219 9,000  Level Minneapolis Center
Wed 05:58:42 PM 44.2744 -90.3839 82° East 190 219 9,000  Level Minneapolis Center
Wed 05:59:44 PM 44.2814 -90.3061 83° East 190 219 9,000  Level Minneapolis Center
Wed 06:00:46 PM 44.2897 -90.2300 81° East 190 219 9,000  Level Minneapolis Center
Wed 06:01:49 PM 44.2961 -90.1522 83° East 191 220 9,000 48 Level Minneapolis Center
Wed 06:02:51 PM 44.3042 -90.0758 82° East 191 220 9,100 70 Climbing Minneapolis Center
Wed 06:03:15 PM 44.3078 -90.0467 80° East 191 220 9,100  Level Minneapolis Center
Wed 06:04:17 PM 44.3156 -89.9717 82° East 190 219 9,100  Level Minneapolis Center
Wed 06:05:19 PM 44.3228 -89.8975 82° East 189 217 9,100  Level Minneapolis Center
Wed 06:06:21 PM 44.3292 -89.8286 83° East 188 216 9,100  Level Minneapolis Center
Wed 06:07:24 PM 44.3369 -89.7550 82° East 185 213 9,100  Level Minneapolis Center
Wed 06:08:26 PM 44.3453 -89.6819 81° East 184 212 9,100  Level Minneapolis Center
Wed 06:09:28 PM 44.3525 -89.6075 82° East 184 212 9,100 48 Level Minneapolis Center
Wed 06:10:30 PM 44.3600 -89.5331 82° East 185 213 9,200  Climbing Minneapolis Center
Wed 06:11:32 PM 44.3664 -89.4583 83° East 185 213 9,100 -48 Descending Minneapolis Center
Wed 06:12:34 PM 44.3717 -89.3883 84° East 185 213 9,100 48 Level Minneapolis Center
Wed 06:13:36 PM 44.3786 -89.3147 82° East 185 213 9,200  Climbing Minneapolis Center
Wed 06:14:38 PM 44.3847 -89.2403 83° East 185 213 9,100 -242 Descending Minneapolis Center
Wed 06:15:40 PM 44.3922 -89.1661 82° East 185 213 8,700 -435 Descending Minneapolis Center
Wed 06:16:42 PM 44.4006 -89.0875 82° East 195 224 8,200 -484 Descending Minneapolis Center
Wed 06:17:44 PM 44.4061 -89.0114 84° East 196 226 7,700 -532 Descending Minneapolis Center
Wed 06:18:46 PM 44.4133 -88.9361 82° East 196 226 7,100 -581 Descending Minneapolis Center
Wed 06:19:48 PM 44.4211 -88.8606 82° East 197 227 6,500 -581 Descending Minneapolis Center
Wed 06:20:50 PM 44.4236 -88.7853 87° East 196 226 5,900 -581 Descending Minneapolis Center
Wed 06:21:52 PM 44.4233 -88.7081 90° East 196 226 5,300 -581 Descending Minneapolis Center
Wed 06:22:54 PM 44.4228 -88.6169 90° East 196 226 4,700 -581 Descending Minneapolis Center
Wed 06:23:56 PM 44.4247 -88.5475 88° East 193 222 4,100 -629 Descending Minneapolis Center
Wed 06:24:58 PM 44.4247 -88.4811 90° East 184 212 3,400 -532 Descending Minneapolis Center
Wed 06:26:00 PM 44.4239 -88.4194 91° East 174 200 3,000 -194 Descending Minneapolis Center
Wed 06:27:02 PM 44.4236 -88.3597 90° East 165 190 3,000 48 Level Minneapolis Center
Wed 06:28:04 PM 44.4239 -88.3022 90° East 158 182 3,100 -96 Climbing Minneapolis Center
Wed 06:29:07 PM 44.4342 -88.2522 74° East 135 155 2,800 -336 Descending Minneapolis Center
Wed 06:30:09 PM 44.4472 -88.2203 60° Northeast 123 142 2,400 -387 Descending Minneapolis Center
Wed 06:32:00 PM 44.4846 -88.1297 65° Northeast  Level Estimated

Login

Don't have an account? Register now (free) for customized features, flight alerts, and more!